MUC | München Airways

 METAR UND TAF INFORMATION

METAR FOR LGRP
ADDS - METARS form results

(0928 UTC 21 May 2019)
Data provider http://aviationweather.gov/metar/data/
 
METAR text: LGRP 210920Z 04006KT 9999 FEW010 27/17 Q1015 NOSIG
Conditions at: LGRP (RHODES/DIAGORAS , GR) observed 0920 UTC 21 May 2019
Temperature: 27.0°C (81°F)
Dewpoint: 17.0°C (63°F) [RH = 54%]
Pressure (altimeter): 29.97 inches Hg (1015.0 mb)
Winds: from the NE (40 degrees) at 7 MPH (6 knots; 3.1 m/s)
Visibility: 6 or more miles (10+ km)
Ceiling: at least 12,000 feet AGL
Clouds: few clouds at 1000 feet AGL
Weather: no significant weather observed at this time

METAR text: LGRP 210850Z 03006KT 9999 FEW010 26/17 Q1015 NOSIG
Conditions at: LGRP (RHODES/DIAGORAS , GR) observed 0850 UTC 21 May 2019
Temperature: 26.0°C (79°F)
Dewpoint: 17.0°C (63°F) [RH = 58%]
Pressure (altimeter): 29.97 inches Hg (1015.0 mb)
Winds: from the NNE (30 degrees) at 7 MPH (6 knots; 3.1 m/s)
Visibility: 6 or more miles (10+ km)
Ceiling: at least 12,000 feet AGL
Clouds: few clouds at 1000 feet AGL
Weather: no significant weather observed at this time

Forecast for: LGRP (RHODES/DIAGORAS , GR)
Text: TAF LGRP 210500Z 2106/2206 13010KT 9999 FEW020
Forecast period: 0600 to 1800 UTC 21 May 2019
Forecast type: FROM: standard forecast or significant change
Winds: from the SE (130 degrees) at 12 MPH (10 knots; 5.1 m/s)
Visibility: 6 or more miles 10+ km)
Ceiling: at least 12,000 feet AGL
Clouds: few clouds at 2000 feet AGL
Weather: no significant weather forecast for this period
Text: BECMG 2118/2120 VRB03KT
Forecast period: 1800 UTC 21 May 2019 to 0600 UTC 22 May 2019
Forecast type: BECOMING: Conditions expected to become as follows by 2000 UTC 21 May 2019
Winds: variable direction winds at 3 MPH (3 knots; 1.5 m/s)
Visibility: 6 or more miles 10+ km)
Ceiling: at least 12,000 feet AGL
Clouds: few clouds at 2000 feet AGL
Weather: no significant weather forecast for this period

 FLUGHAFENKARTE

 RUNWAY INFORMATION
Runway 07 Runway length 10846 ft Runway width 148 ft
Runway elevation 16 ft Runway displaced threshold 0 ft Runway heading 70
Runway 25 Runway length 10846 ft Runway width 148 ft
Runway elevation 17 ft Runway displaced threshold 0 ft Runway heading 250

 AIRPORT FREQUENCIES
Type A/G Name RDO Frequency 563.7 MHZ
Type APP Name RODOS APP Frequency 118.25 MHZ
Type ATIS Name ATIS Frequency 126.35 MHZ
Type GND Name GND Frequency 121.7 MHZ
Type TWR Name TWR Frequency 118.2 MHZ

 AIRPORT NEAR NAVIGATION AIDS
Type VOR-DME Name Paradisi Frequency 108600 KHZ
Type VOR-DME Name Rodos Frequency 115800 KHZ
Type TACAN Name Rodos Frequency 117400 KHZ
Type NDB Name Rodos Frequency 339 KHZ